Time;durP1;ratioP1;P1;durP2;ratioP2;P2;SDS_P1;SDS_P2;PMS_P1;PMS_P2;Temp;Humidity;BMP_temperature;BMP_pressure;BME280_temperature;BME280_humidity;BME280_pressure;Samples;Min_cycle;Max_cycle;Signal;HPM_P1;HPM_P2
2021/07/03 00:01:57;;;;;;;1.63;1.20;;;22.60;96.50;;;;;;5013846;28;20467;-78
2021/07/03 00:04:24;;;;;;;5.18;1.48;;;22.50;96.50;;;;;;5013259;28;20034;-78
2021/07/03 00:06:50;;;;;;;4.03;1.40;;;22.50;96.60;;;;;;5012532;28;20030;-75
2021/07/03 00:09:16;;;;;;;3.17;1.23;;;22.50;96.70;;;;;;5012888;28;20050;-76
2021/07/03 00:11:43;;;;;;;1.75;1.30;;;22.50;96.70;;;;;;5011873;28;20029;-78
2021/07/03 00:14:09;;;;;;;2.70;1.20;;;22.50;96.80;;;;;;5012317;28;20049;-77
2021/07/03 00:16:35;;;;;;;2.67;1.25;;;22.40;96.60;;;;;;5012584;28;20026;-77
2021/07/03 00:19:03;;;;;;;1.25;0.98;;;22.40;96.60;;;;;;5012878;28;20045;-78
2021/07/03 00:21:28;;;;;;;8.55;1.27;;;22.50;96.60;;;;;;5012251;28;20030;-76
2021/07/03 00:23:54;;;;;;;1.95;1.20;;;22.40;96.60;;;;;;5012204;28;20030;-78
2021/07/03 00:26:20;;;;;;;1.25;1.15;;;22.40;96.70;;;;;;5013494;28;20390;-78
2021/07/03 00:28:46;;;;;;;2.53;1.50;;;22.40;96.80;;;;;;5012895;28;20124;-77
2021/07/03 00:31:11;;;;;;;3.05;1.35;;;22.40;96.90;;;;;;5012851;28;20050;-77
2021/07/03 00:33:37;;;;;;;1.55;1.30;;;22.30;96.90;;;;;;5012332;28;20026;-77
2021/07/03 00:36:03;;;;;;;2.60;1.30;;;22.30;97.00;;;;;;5012287;28;20501;-77
2021/07/03 00:38:29;;;;;;;4.13;1.50;;;22.30;97.10;;;;;;5012221;28;20113;-76
2021/07/03 00:40:55;;;;;;;4.40;2.05;;;22.20;97.10;;;;;;5012314;28;20097;-76
2021/07/03 00:43:21;;;;;;;1.27;1.13;;;22.20;97.20;;;;;;5012447;28;20089;-77
2021/07/03 00:45:46;;;;;;;3.28;1.33;;;22.20;97.20;;;;;;5012973;28;20470;-78
2021/07/03 00:48:12;;;;;;;9.80;1.50;;;22.20;97.30;;;;;;5011213;28;20030;-77
2021/07/03 00:50:38;;;;;;;1.40;1.10;;;22.10;97.60;;;;;;5012387;28;20410;-78
2021/07/03 00:53:04;;;;;;;2.03;1.40;;;22.20;97.20;;;;;;5012538;28;20030;-77
2021/07/03 00:55:31;;;;;;;2.00;1.20;;;22.20;97.30;;;;;;5012877;28;20058;-78
2021/07/03 00:57:56;;;;;;;4.03;1.40;;;22.10;97.30;;;;;;5012680;28;20037;-78
2021/07/03 01:00:23;;;;;;;2.67;1.30;;;22.10;97.40;;;;;;5012022;28;20026;-77
2021/07/03 01:02:49;;;;;;;2.92;1.30;;;22.10;97.50;;;;;;5011974;28;20493;-77
2021/07/03 01:05:16;;;;;;;4.18;1.35;;;22.00;97.70;;;;;;5011687;28;20042;-77
2021/07/03 01:07:42;;;;;;;1.88;1.55;;;22.00;97.80;;;;;;5011745;28;20516;-78
2021/07/03 01:10:19;;;;;;;1.55;1.27;;;21.90;97.90;;;;;;5012514;28;20056;-78
2021/07/03 01:12:45;;;;;;;3.08;1.67;;;21.90;98.00;;;;;;5012408;28;20022;-78
2021/07/03 01:15:11;;;;;;;2.38;1.10;;;21.80;98.00;;;;;;5012657;28;20029;-78
2021/07/03 01:17:37;;;;;;;2.50;1.30;;;21.80;98.10;;;;;;5012192;28;20033;-78
2021/07/03 01:20:04;;;;;;;4.38;1.15;;;21.80;98.20;;;;;;5012381;28;20033;-78
2021/07/03 01:22:30;;;;;;;1.98;1.10;;;21.80;98.20;;;;;;5011915;28;20010;-77
2021/07/03 01:24:56;;;;;;;2.45;1.30;;;21.80;98.20;;;;;;5012409;28;20060;-78
2021/07/03 01:27:22;;;;;;;2.63;2.08;;;21.70;98.30;;;;;;5012156;28;20529;-78
2021/07/03 01:29:47;;;;;;;2.42;1.23;;;21.80;98.30;;;;;;5010538;28;20054;-77
2021/07/03 01:32:13;;;;;;;2.03;1.40;;;21.80;98.20;;;;;;5011508;28;20022;-76
2021/07/03 01:34:39;;;;;;;2.45;1.33;;;21.80;98.30;;;;;;5011637;28;20022;-76
2021/07/03 01:37:05;;;;;;;3.03;1.67;;;21.80;98.30;;;;;;5011891;28;20030;-77
2021/07/03 01:39:31;;;;;;;1.38;1.15;;;21.80;98.30;;;;;;5012032;28;20072;-77
2021/07/03 01:41:57;;;;;;;4.53;1.40;;;21.70;98.40;;;;;;5015253;28;20470;-78
2021/07/03 01:44:25;;;;;;;1.77;1.35;;;21.70;98.60;;;;;;5015976;28;20101;-77
2021/07/03 01:46:52;;;;;;;2.22;1.40;;;21.70;98.60;;;;;;5014818;28;20026;-78
2021/07/03 01:49:18;;;;;;;2.25;1.30;;;21.60;98.70;;;;;;5015268;28;20030;-75
2021/07/03 01:51:44;;;;;;;1.60;1.30;;;21.50;98.80;;;;;;5014863;28;20149;-78
2021/07/03 01:54:10;;;;;;;1.20;1.10;;;21.50;99.00;;;;;;5015199;28;20025;-78
2021/07/03 01:56:38;;;;;;;2.38;1.30;;;21.40;99.10;;;;;;5015150;28;20018;-77
2021/07/03 01:59:03;;;;;;;7.18;1.50;;;21.40;99.20;;;;;;5015643;28;20029;-77
2021/07/03 02:01:29;;;;;;;2.05;1.20;;;21.40;99.30;;;;;;5015674;28;20032;-78
2021/07/03 02:03:55;;;;;;;5.38;1.50;;;21.30;99.50;;;;;;5014416;28;20401;-76
2021/07/03 02:06:21;;;;;;;3.97;1.30;;;21.30;99.50;;;;;;5015353;28;20029;-76
2021/07/03 02:08:46;;;;;;;2.67;1.40;;;21.30;99.70;;;;;;5015036;28;20045;-77
2021/07/03 02:11:12;;;;;;;2.65;1.30;;;21.30;99.80;;;;;;5015514;28;20025;-78
2021/07/03 02:13:38;;;;;;;2.85;1.48;;;21.20;99.80;;;;;;5015391;28;20437;-77
2021/07/03 02:16:04;;;;;;;2.78;1.42;;;21.20;99.90;;;;;;5015332;28;20097;-77
2021/07/03 02:18:29;;;;;;;5.40;1.83;;;21.20;99.90;;;;;;5015142;28;20026;-78
2021/07/03 02:20:55;;;;;;;3.08;1.58;;;21.20;99.90;;;;;;5015562;28;20036;-77
2021/07/03 02:23:21;;;;;;;1.70;1.42;;;21.20;99.90;;;;;;5014259;28;20033;-76
2021/07/03 02:25:46;;;;;;;3.25;1.30;;;21.20;99.90;;;;;;5015095;28;20030;-76
2021/07/03 02:28:15;;;;;;;2.78;1.45;;;21.10;99.90;;;;;;5015047;28;20105;-77
2021/07/03 02:30:42;;;;;;;5.18;1.35;;;21.10;99.90;;;;;;5014609;28;20037;-77
2021/07/03 02:33:08;;;;;;;2.33;1.38;;;21.10;99.90;;;;;;5014906;28;20520;-78
2021/07/03 02:35:34;;;;;;;4.85;1.35;;;21.10;99.90;;;;;;5014588;28;20125;-78
2021/07/03 02:38:00;;;;;;;9.88;1.90;;;21.10;99.90;;;;;;5014801;28;20494;-76
2021/07/03 02:40:26;;;;;;;1.42;1.20;;;21.10;99.90;;;;;;5014549;28;20033;-77
2021/07/03 02:42:51;;;;;;;4.05;1.23;;;21.00;99.90;;;;;;5014642;28;20026;-78
2021/07/03 02:45:18;;;;;;;5.72;1.35;;;21.00;99.90;;;;;;5014975;28;20042;-77
2021/07/03 02:47:45;;;;;;;1.83;1.20;;;21.00;99.90;;;;;;5014695;28;20021;-77
2021/07/03 02:50:18;;;;;;;3.58;1.38;;;21.00;99.90;;;;;;5015001;28;20025;-77
2021/07/03 02:52:44;;;;;;;2.08;1.30;;;21.10;99.90;;;;;;5014381;28;20014;-77
2021/07/03 02:55:11;;;;;;;3.15;1.55;;;21.10;99.90;;;;;;5014424;28;20029;-76
2021/07/03 02:57:37;;;;;;;6.25;1.50;;;21.10;99.90;;;;;;5014446;28;20018;-77
2021/07/03 03:00:09;;;;;;;3.83;1.60;;;21.10;99.90;;;;;;5014208;28;20045;-76
2021/07/03 03:02:36;;;;;;;7.97;1.58;;;21.20;99.90;;;;;;5014224;28;20525;-77
2021/07/03 03:05:03;;;;;;;3.67;1.70;;;21.20;99.90;;;;;;5014492;28;20037;-78
2021/07/03 03:07:29;;;;;;;2.80;1.45;;;21.20;99.90;;;;;;5014321;28;20405;-77
2021/07/03 03:09:54;;;;;;;7.57;1.90;;;21.20;99.90;;;;;;5014577;28;20042;-77
2021/07/03 03:12:20;;;;;;;1.60;1.50;;;21.20;99.90;;;;;;5014797;28;20044;-77
2021/07/03 03:14:46;;;;;;;1.77;1.42;;;21.20;99.90;;;;;;5014449;28;20072;-77
2021/07/03 03:17:11;;;;;;;1.95;1.52;;;21.20;99.90;;;;;;5012881;28;20390;-78
2021/07/03 03:19:37;;;;;;;2.17;1.50;;;21.20;99.90;;;;;;5014287;28;20033;-78
2021/07/03 03:22:03;;;;;;;1.90;1.30;;;21.20;99.90;;;;;;5013779;28;20025;-77
2021/07/03 03:24:28;;;;;;;1.30;1.20;;;21.20;99.90;;;;;;5014121;28;20118;-77
2021/07/03 03:26:54;;;;;;;2.45;1.25;;;21.20;99.90;;;;;;5014231;28;20347;-77
2021/07/03 03:29:20;;;;;;;4.45;1.70;;;21.30;99.90;;;;;;5013734;28;20473;-76
2021/07/03 03:31:46;;;;;;;2.65;1.50;;;21.30;99.90;;;;;;5013801;28;20033;-77
2021/07/03 03:34:11;;;;;;;4.28;1.42;;;21.30;99.90;;;;;;5013920;28;20014;-78
2021/07/03 03:36:37;;;;;;;17.23;1.58;;;21.30;99.90;;;;;;5013887;28;20375;-78
2021/07/03 03:39:03;;;;;;;2.63;1.42;;;21.30;99.90;;;;;;5013755;28;20050;-78
2021/07/03 03:41:29;;;;;;;8.45;2.17;;;21.20;99.90;;;;;;5013750;28;20355;-77
2021/07/03 03:43:54;;;;;;;1.48;1.33;;;21.30;99.90;;;;;;5013585;28;20033;-76
2021/07/03 03:46:20;;;;;;;2.00;1.48;;;21.20;99.90;;;;;;5013763;28;20018;-79
2021/07/03 03:48:46;;;;;;;4.25;1.63;;;21.20;99.90;;;;;;5013644;28;20040;-79
2021/07/03 03:51:12;;;;;;;2.10;1.48;;;21.20;99.90;;;;;;5013640;28;20029;-75
2021/07/03 03:53:37;;;;;;;2.83;1.45;;;21.20;99.90;;;;;;5013664;28;20022;-76
2021/07/03 03:56:03;;;;;;;5.57;1.70;;;21.30;99.90;;;;;;5013560;28;20026;-77
2021/07/03 03:58:29;;;;;;;1.75;1.52;;;21.30;99.90;;;;;;5013418;28;20029;-76
2021/07/03 04:00:55;;;;;;;2.35;1.40;;;21.40;99.90;;;;;;5013790;28;20029;-79
2021/07/03 04:03:20;;;;;;;2.53;1.50;;;21.50;99.90;;;;;;5012777;28;20034;-76
2021/07/03 04:05:46;;;;;;;3.33;1.63;;;21.60;99.90;;;;;;5013600;28;20544;-78
2021/07/03 04:08:12;;;;;;;2.85;1.50;;;21.70;99.90;;;;;;4987455;28;20034;-76
2021/07/03 04:10:38;;;;;;;3.80;1.70;;;21.80;99.90;;;;;;4993720;28;20026;-78
2021/07/03 04:13:03;;;;;;;3.08;1.48;;;21.90;99.90;;;;;;4992369;28;20026;-76
2021/07/03 04:15:30;;;;;;;6.03;1.50;;;22.00;99.90;;;;;;4993276;28;20022;-78
2021/07/03 04:17:56;;;;;;;2.45;1.95;;;22.10;99.90;;;;;;4993011;28;20037;-78
2021/07/03 04:20:21;;;;;;;5.07;2.45;;;22.30;99.90;;;;;;4993619;28;20026;-75
2021/07/03 04:22:47;;;;;;;6.88;1.52;;;22.40;99.90;;;;;;4993628;28;20166;-77
2021/07/03 04:25:15;;;;;;;4.93;1.70;;;22.50;99.80;;;;;;4992710;28;20034;-78
2021/07/03 04:27:42;;;;;;;4.35;2.00;;;22.60;99.40;;;;;;4993330;28;20026;-77
2021/07/03 04:30:09;;;;;;;4.07;1.60;;;22.70;99.10;;;;;;4992550;28;20037;-74
2021/07/03 04:32:35;;;;;;;6.05;1.70;;;22.70;99.20;;;;;;4991023;28;20507;-78
2021/07/03 04:35:02;;;;;;;2.75;1.63;;;23.00;98.90;;;;;;4992538;28;20398;-77
2021/07/03 04:37:28;;;;;;;3.47;1.55;;;23.30;98.40;;;;;;4992301;28;20041;-77
2021/07/03 04:39:53;;;;;;;1.63;1.35;;;23.70;97.80;;;;;;4992294;28;20030;-76
2021/07/03 04:42:19;;;;;;;4.53;1.50;;;24.30;97.20;;;;;;4991311;28;20026;-76
2021/07/03 04:44:45;;;;;;;3.13;1.88;;;24.70;96.40;;;;;;4992274;28;20038;-79
2021/07/03 04:47:11;;;;;;;9.88;2.45;;;25.40;96.00;;;;;;4992242;28;20474;-78
2021/07/03 04:49:36;;;;;;;3.17;1.35;;;25.60;95.20;;;;;;4990774;28;20026;-75
2021/07/03 04:52:03;;;;;;;5.38;1.30;;;26.10;94.60;;;;;;4991977;28;20022;-74
2021/07/03 04:54:28;;;;;;;2.58;1.50;;;26.60;94.00;;;;;;4991831;28;20053;-74
2021/07/03 04:57:11;;;;;;;5.30;1.30;;;27.10;93.30;;;;;;4991992;28;20061;-77
2021/07/03 04:59:39;;;;;;;2.10;1.55;;;28.00;92.90;;;;;;4991291;28;20049;-77
2021/07/03 05:02:06;;;;;;;6.47;1.48;;;28.80;91.50;;;;;;4991782;28;20040;-77
2021/07/03 05:04:31;;;;;;;6.32;1.30;;;29.20;90.90;;;;;;4992046;28;20125;-76
2021/07/03 05:06:57;;;;;;;3.10;1.40;;;30.00;90.30;;;;;;4991810;28;20547;-78
2021/07/03 05:09:23;;;;;;;1.88;1.15;;;31.20;89.10;;;;;;5007907;28;20042;-76
2021/07/03 05:11:49;;;;;;;1.55;1.00;;;31.60;86.80;;;;;;5026198;28;20021;-78
2021/07/03 05:14:15;;;;;;;3.53;1.50;;;31.10;86.60;;;;;;5011497;28;20076;-77
2021/07/03 05:16:41;;;;;;;1.38;1.05;;;31.50;86.30;;;;;;5011198;28;20026;-77
2021/07/03 05:19:07;;;;;;;8.77;1.05;;;32.10;85.40;;;;;;5011682;28;20028;-77
2021/07/03 05:21:33;;;;;;;2.97;1.15;;;32.70;84.30;;;;;;5011043;28;20434;-74
2021/07/03 05:23:58;;;;;;;1.50;1.10;;;33.00;83.20;;;;;;5011072;28;20466;-77
2021/07/03 05:26:24;;;;;;;2.80;1.17;;;33.50;82.50;;;;;;5011021;28;20026;-77
2021/07/03 05:28:50;;;;;;;2.90;1.10;;;34.10;81.50;;;;;;5011206;28;20033;-77
2021/07/03 05:31:15;;;;;;;2.63;0.95;;;33.90;80.60;;;;;;5010989;28;20106;-78
2021/07/03 05:33:41;;;;;;;1.52;1.02;;;33.20;80.80;;;;;;5011172;28;20044;-76
2021/07/03 05:36:07;;;;;;;3.85;1.38;;;32.20;82.30;;;;;;5011047;28;20018;-73
2021/07/03 05:38:40;;;;;;;5.30;1.40;;;31.70;83.70;;;;;;5010645;28;20037;-76
2021/07/03 05:41:06;;;;;;;2.78;1.05;;;31.60;84.00;;;;;;5011069;28;20080;-77
2021/07/03 05:43:32;;;;;;;6.32;1.10;;;31.50;84.00;;;;;;5011107;28;20034;-78
2021/07/03 05:45:58;;;;;;;1.50;1.20;;;32.50;82.80;;;;;;5011085;28;20313;-77
2021/07/03 05:48:23;;;;;;;3.25;0.93;;;33.70;81.30;;;;;;5010991;28;20478;-78
2021/07/03 05:50:50;;;;;;;8.70;1.20;;;33.90;79.80;;;;;;5011065;28;20355;-78
2021/07/03 05:53:16;;;;;;;1.38;1.10;;;34.30;79.80;;;;;;5010943;28;20026;-77
2021/07/03 05:55:42;;;;;;;11.60;1.48;;;35.10;77.70;;;;;;5010627;28;20037;-78
2021/07/03 05:58:08;;;;;;;6.75;1.00;;;35.20;77.50;;;;;;5010582;28;20061;-77
2021/07/03 06:00:33;;;;;;;6.88;1.08;;;35.20;76.90;;;;;;5010428;28;20066;-75
2021/07/03 06:02:59;;;;;;;2.70;0.90;;;35.80;75.70;;;;;;5011681;28;20041;-77
2021/07/03 06:05:25;;;;;;;8.30;1.00;;;36.30;75.30;;;;;;5012346;28;20034;-77
2021/07/03 06:07:50;;;;;;;3.63;1.25;;;35.90;75.00;;;;;;5011653;28;20038;-76
2021/07/03 06:10:16;;;;;;;6.97;1.45;;;36.80;74.00;;;;;;5011747;28;20029;-76
2021/07/03 06:12:42;;;;;;;3.35;1.00;;;37.00;73.20;;;;;;5011332;28;20386;-75
2021/07/03 06:15:11;;;;;;;1.83;1.27;;;37.90;72.30;;;;;;5011647;28;20498;-77
2021/07/03 06:17:37;;;;;;;4.75;1.17;;;37.90;71.80;;;;;;5011897;28;20030;-78
2021/07/03 06:20:05;;;;;;;4.55;1.20;;;37.80;71.50;;;;;;5011393;28;20062;-73
2021/07/03 06:22:31;;;;;;;3.25;1.83;;;38.60;70.70;;;;;;5011171;28;20481;-76
2021/07/03 06:24:57;;;;;;;2.83;1.20;;;38.20;70.00;;;;;;5011336;28;20449;-78
2021/07/03 06:27:23;;;;;;;1.52;0.95;;;38.10;70.70;;;;;;4995746;28;20026;-77
2021/07/03 06:29:49;;;;;;;1.38;1.02;;;38.10;70.30;;;;;;5015228;28;20034;-75
2021/07/03 06:32:14;;;;;;;4.78;1.45;;;38.10;70.90;;;;;;5014695;28;20028;-77
2021/07/03 06:34:40;;;;;;;8.38;1.25;;;37.70;70.80;;;;;;5014138;28;20101;-77
2021/07/03 06:37:06;;;;;;;7.45;1.02;;;38.00;70.50;;;;;;5014476;28;20022;-77
2021/07/03 06:39:32;;;;;;;4.00;1.30;;;38.70;69.80;;;;;;5014583;28;20080;-75
2021/07/03 06:41:58;;;;;;;3.40;1.15;;;39.10;69.10;;;;;;4997105;28;20056;-76
2021/07/03 06:44:27;;;;;;;7.32;1.33;;;39.30;69.00;;;;;;5014457;28;20085;-75
2021/07/03 06:46:52;;;;;;;4.65;1.08;;;37.90;68.10;;;;;;5013208;28;20022;-75
2021/07/03 06:49:18;;;;;;;6.75;1.52;;;38.00;69.60;;;;;;5014200;28;20033;-74
2021/07/03 06:51:44;;;;;;;6.22;1.17;;;38.50;69.80;;;;;;5014937;28;20536;-75
2021/07/03 06:54:10;;;;;;;8.85;1.40;;;37.50;69.70;;;;;;5013597;28;20038;-75
2021/07/03 06:56:36;;;;;;;1.88;0.93;;;36.60;71.30;;;;;;5014631;28;20018;-74
2021/07/03 06:59:01;;;;;;;4.05;1.20;;;35.90;72.20;;;;;;5014787;28;20080;-75
2021/07/03 07:01:27;;;;;;;4.72;1.35;;;35.60;73.00;;;;;;5014484;28;20109;-76
2021/07/03 07:03:53;;;;;;;9.88;1.63;;;35.00;72.90;;;;;;5014510;28;20030;-76
2021/07/03 07:06:19;;;;;;;3.40;1.67;;;33.80;74.70;;;;;;5014231;28;20037;-76
2021/07/03 07:08:44;;;;;;;2.13;1.33;;;33.00;76.60;;;;;;5013825;28;20080;-75
2021/07/03 07:11:10;;;;;;;9.43;1.77;;;32.30;77.80;;;;;;5014058;28;20512;-75
2021/07/03 07:13:36;;;;;;;5.15;1.33;;;31.80;79.00;;;;;;5013879;28;20361;-75
2021/07/03 07:16:02;;;;;;;6.95;1.42;;;31.20;80.60;;;;;;4995388;28;20084;-75
2021/07/03 07:18:28;;;;;;;8.77;1.77;;;30.90;81.20;;;;;;5013141;28;20493;-76
2021/07/03 07:20:54;;;;;;;1.50;1.30;;;30.90;80.90;;;;;;5014350;28;20041;-75
2021/07/03 07:23:19;;;;;;;5.18;1.70;;;31.00;80.00;;;;;;5013373;28;20108;-75
2021/07/03 07:25:47;;;;;;;6.78;1.50;;;30.80;80.40;;;;;;5012230;28;20084;-75
2021/07/03 07:28:13;;;;;;;13.80;1.60;;;30.60;80.30;;;;;;5013626;28;20425;-75
2021/07/03 07:30:39;;;;;;;3.15;1.40;;;30.80;81.30;;;;;;5013368;28;20026;-74
2021/07/03 07:33:04;;;;;;;2.75;1.35;;;31.00;80.00;;;;;;5013803;28;20030;-75
2021/07/03 07:35:30;;;;;;;3.60;1.30;;;31.10;80.10;;;;;;5013165;28;20026;-75
2021/07/03 07:37:56;;;;;;;6.70;1.38;;;31.20;79.70;;;;;;5013218;28;20021;-75
2021/07/03 07:40:21;;;;;;;2.55;1.27;;;31.20;79.50;;;;;;5013325;28;20074;-75
2021/07/03 07:42:47;;;;;;;3.72;2.20;;;30.90;78.60;;;;;;5013109;28;20359;-75
2021/07/03 07:45:14;;;;;;;6.60;1.75;;;30.80;78.00;;;;;;5014173;28;20078;-75
2021/07/03 07:47:39;;;;;;;4.93;1.55;;;30.80;77.60;;;;;;4995970;28;20413;-75
2021/07/03 07:50:07;;;;;;;7.38;1.38;;;30.70;75.70;;;;;;5013732;28;20041;-74
2021/07/03 07:52:33;;;;;;;5.32;1.65;;;30.70;76.30;;;;;;5013295;28;20014;-75
2021/07/03 07:54:59;;;;;;;5.97;1.50;;;30.60;74.10;;;;;;4997093;28;20105;-75
2021/07/03 07:57:25;;;;;;;4.03;1.90;;;30.60;76.70;;;;;;5012410;28;20021;-74
2021/07/03 07:59:51;;;;;;;2.10;1.67;;;30.40;76.40;;;;;;5012222;28;20030;-75
2021/07/03 08:02:17;;;;;;;6.18;1.40;;;30.60;76.50;;;;;;5012419;28;20407;-74
2021/07/03 08:04:43;;;;;;;3.88;1.70;;;30.80;75.50;;;;;;5011453;28;20048;-75
2021/07/03 08:07:08;;;;;;;3.97;1.23;;;31.00;75.10;;;;;;5011546;28;20096;-75
2021/07/03 08:09:34;;;;;;;4.68;1.63;;;31.00;74.50;;;;;;5012159;28;20046;-75
2021/07/03 08:12:00;;;;;;;5.25;1.40;;;31.10;73.90;;;;;;4994387;28;20505;-74
2021/07/03 08:14:27;;;;;;;2.70;1.90;;;31.30;73.30;;;;;;5012401;28;20034;-78
2021/07/03 08:16:52;;;;;;;6.97;1.60;;;31.50;73.20;;;;;;5012296;28;20041;-75
2021/07/03 08:19:18;;;;;;;2.70;1.60;;;31.50;71.90;;;;;;5013495;28;20026;-74
2021/07/03 08:21:44;;;;;;;2.47;1.70;;;31.60;72.70;;;;;;5012993;28;20401;-74
2021/07/03 08:24:10;;;;;;;2.95;1.40;;;31.80;71.00;;;;;;5012657;28;20157;-75
2021/07/03 08:26:36;;;;;;;3.08;1.60;;;31.90;71.20;;;;;;5011156;28;20030;-75
2021/07/03 08:29:02;;;;;;;5.68;1.60;;;32.00;69.70;;;;;;5012114;28;20018;-74
2021/07/03 08:31:28;;;;;;;6.18;1.98;;;32.00;69.30;;;;;;5012288;28;20474;-74
2021/07/03 08:33:54;;;;;;;2.97;1.60;;;32.00;70.20;;;;;;5013341;28;20386;-75
2021/07/03 08:36:25;;;;;;;6.55;1.95;;;32.00;69.40;;;;;;5012233;28;20129;-74
2021/07/03 08:38:52;;;;;;;5.35;1.77;;;32.10;70.10;;;;;;5011979;28;20104;-75
2021/07/03 08:41:17;;;;;;;1.70;1.55;;;32.20;70.70;;;;;;5011273;28;20018;-75
2021/07/03 08:43:49;;;;;;;2.47;1.35;;;32.20;70.00;;;;;;5011034;28;20103;-74
2021/07/03 08:46:21;;;;;;;2.53;1.40;;;32.40;71.50;;;;;;5011601;28;20034;-75
2021/07/03 08:48:53;;;;;;;3.20;1.40;;;32.60;75.30;;;;;;5010387;28;20037;-75
2021/07/03 08:51:19;;;;;;;3.35;1.10;;;32.70;77.20;;;;;;5011563;28;20510;-75
2021/07/03 08:53:44;;;;;;;4.50;1.60;;;32.80;77.40;;;;;;5011760;28;20046;-75
2021/07/03 08:56:10;;;;;;;1.65;1.20;;;32.80;76.60;;;;;;5009170;28;20028;-76
2021/07/03 08:58:36;;;;;;;4.60;1.27;;;32.80;77.60;;;;;;5010758;28;20363;-81
2021/07/03 09:01:04;;;;;;;5.38;1.45;;;32.80;77.80;;;;;;5011196;28;20125;-76
2021/07/03 09:03:31;;;;;;;7.15;1.70;;;32.80;77.50;;;;;;5012067;28;20410;-76
2021/07/03 09:06:00;;;;;;;4.25;1.20;;;32.90;78.50;;;;;;5011069;28;20026;-77
2021/07/03 09:08:27;;;;;;;10.30;1.20;;;33.00;78.30;;;;;;5011894;28;20046;-76
2021/07/03 09:11:09;;;;;;;4.43;1.00;;;33.00;78.60;;;;;;5010983;28;20030;-75
2021/07/03 09:13:38;;;;;;;1.80;1.00;;;33.10;79.70;;;;;;5011910;28;20536;-76
2021/07/03 09:16:04;;;;;;;3.63;0.82;;;33.10;80.30;;;;;;5006506;28;20371;-76
2021/07/03 09:18:31;;;;;;;1.77;1.10;;;33.10;81.30;;;;;;5010118;28;20025;-76
2021/07/03 09:21:02;;;;;;;1.13;0.82;;;33.00;81.60;;;;;;5011763;28;20014;-76
2021/07/03 09:23:32;;;;;;;;;;;32.80;81.30;;;;;;5011332;28;20022;-75
2021/07/03 09:26:08;;;;;;;5.63;1.23;;;32.70;82.20;;;;;;5010006;28;19917;-76
2021/07/03 09:28:39;;;;;;;3.22;1.38;;;32.70;82.60;;;;;;5011603;28;20386;-76
2021/07/03 09:31:07;;;;;;;16.60;2.25;;;32.60;82.90;;;;;;5012556;28;20029;-76
2021/07/03 09:33:44;;;;;;;9.40;2.58;;;32.60;83.50;;;;;;5012348;28;20116;-75
2021/07/03 09:36:13;;;;;;;8.52;3.90;;;32.50;83.80;;;;;;5003291;28;20044;-76
2021/07/03 09:38:48;;;;;;;7.53;5.22;;;32.40;85.00;;;;;;5012112;28;20478;-75
2021/07/03 09:41:17;;;;;;;17.75;6.80;;;32.20;85.70;;;;;;5002776;28;20022;-75
2021/07/03 09:43:51;;;;;;;13.73;6.63;;;32.20;87.50;;;;;;5012431;28;20482;-74
2021/07/03 09:46:30;;;;;;;12.05;6.07;;;32.10;87.40;;;;;;5003220;28;20110;-75
2021/07/03 09:49:02;;;;;;;10.63;5.15;;;32.00;88.90;;;;;;5012317;28;20079;-75
2021/07/03 09:51:36;;;;;;;12.85;5.40;;;31.80;89.70;;;;;;5001748;28;20065;-75
2021/07/03 09:54:03;;;;;;;10.93;4.47;;;31.70;89.10;;;;;;5012183;28;20486;-76
2021/07/03 09:56:29;;;;;;;5.97;3.58;;;31.50;89.20;;;;;;5008112;28;20018;-75
2021/07/03 09:58:55;;;;;;;3.85;2.42;;;31.50;89.60;;;;;;5012004;28;20033;-75
2021/07/03 10:01:21;;;;;;;4.03;2.70;;;31.30;89.10;;;;;;5012718;28;20030;-76
2021/07/03 10:03:47;;;;;;;5.05;2.30;;;31.10;90.30;;;;;;5016444;28;20040;-76
2021/07/03 10:06:26;;;;;;;6.00;2.55;;;31.00;90.30;;;;;;5016246;28;20390;-75
2021/07/03 10:08:59;;;;;;;2.70;2.30;;;31.00;90.90;;;;;;5016064;28;20034;-75
2021/07/03 10:11:26;;;;;;;8.05;1.83;;;31.00;90.90;;;;;;5016504;28;20060;-75
2021/07/03 10:13:59;;;;;;;7.50;1.83;;;31.10;91.90;;;;;;5016166;28;20018;-76
2021/07/03 10:16:24;;;;;;;4.05;1.67;;;31.10;91.90;;;;;;5016007;28;20021;-75
2021/07/03 10:18:50;;;;;;;6.35;2.60;;;31.20;91.70;;;;;;5016446;28;20537;-76
2021/07/03 10:21:21;;;;;;;3.45;1.83;;;31.20;91.80;;;;;;5015878;28;20053;-76
2021/07/03 10:23:48;;;;;;;8.55;1.80;;;31.20;92.00;;;;;;5016032;28;20033;-76
2021/07/03 10:26:14;;;;;;;3.58;1.80;;;31.30;92.00;;;;;;5016843;28;20030;-76
2021/07/03 10:28:48;;;;;;;5.07;2.20;;;31.40;92.00;;;;;;5014950;28;20029;-77
2021/07/03 10:31:15;;;;;;;1.75;1.38;;;31.30;91.70;;;;;;5015419;28;20054;-78
2021/07/03 10:33:50;;;;;;;5.32;1.25;;;31.20;91.80;;;;;;5015646;28;20036;-77
2021/07/03 10:36:29;;;;;;;3.10;1.40;;;31.10;92.20;;;;;;5015191;28;20025;-77
2021/07/03 10:38:56;;;;;;;2.30;1.20;;;31.10;92.00;;;;;;5015079;28;20025;-77
2021/07/03 10:41:27;;;;;;;1.55;1.08;;;30.90;92.50;;;;;;5015822;28;20036;-77
2021/07/03 10:43:58;;;;;;;5.78;1.20;;;30.80;93.10;;;;;;5014887;28;20029;-75
2021/07/03 10:46:26;;;;;;;4.30;1.25;;;30.80;93.10;;;;;;5014898;28;20112;-76
2021/07/03 10:48:56;;;;;;;2.13;1.20;;;30.90;93.20;;;;;;5014167;28;20042;-76
2021/07/03 10:51:30;;;;;;;6.50;1.73;;;31.10;92.30;;;;;;5014075;28;20486;-76
2021/07/03 10:54:09;;;;;;;5.32;1.88;;;31.10;92.80;;;;;;5015170;28;20029;-76
2021/07/03 10:57:03;;;;;;;3.70;2.13;;;31.10;92.50;;;;;;5011426;28;20109;-77
2021/07/03 10:59:35;;;;;;;3.45;2.13;;;31.20;92.80;;;;;;5015206;28;20022;-77
2021/07/03 11:02:10;;;;;;;2.20;2.00;;;31.10;92.30;;;;;;5015412;28;20534;-76
2021/07/03 11:04:48;;;;;;;3.08;1.38;;;31.00;92.90;;;;;;5015531;28;20068;-75
2021/07/03 11:07:19;;;;;;;2.70;1.17;;;30.80;92.60;;;;;;5016242;28;20034;-76
2021/07/03 11:09:46;;;;;;;2.25;1.30;;;30.80;92.90;;;;;;5014821;28;20474;-76
2021/07/03 11:12:14;;;;;;;3.13;1.23;;;30.80;93.50;;;;;;5014416;28;20033;-76
2021/07/03 11:15:00;;;;;;;3.40;1.10;;;30.80;93.00;;;;;;5014617;28;20474;-76
2021/07/03 11:17:27;;;;;;;2.20;0.70;;;30.80;93.40;;;;;;5013985;28;20069;-76
2021/07/03 11:19:54;;;;;;;1.05;0.90;;;30.80;92.50;;;;;;5014335;28;20502;-77
2021/07/03 11:22:22;;;;;;;1.92;0.70;;;30.60;93.00;;;;;;5014624;28;20059;-76
2021/07/03 11:24:56;;;;;;;3.78;0.98;;;30.50;93.30;;;;;;5014538;28;20045;-76
2021/07/03 11:27:39;;;;;;;2.25;1.00;;;30.50;93.70;;;;;;5014377;28;20026;-76
2021/07/03 11:30:16;;;;;;;4.15;1.10;;;30.60;94.00;;;;;;5014588;28;20116;-75
2021/07/03 11:32:49;;;;;;;4.53;0.88;;;30.70;93.80;;;;;;5014398;28;20496;-75
2021/07/03 11:35:15;;;;;;;2.75;0.70;;;30.80;93.60;;;;;;5014626;28;20488;-76
2021/07/03 11:37:41;;;;;;;2.70;0.70;;;30.80;93.50;;;;;;5014397;28;20029;-78
2021/07/03 11:40:13;;;;;;;8.57;1.15;;;30.90;93.40;;;;;;5014407;28;20026;-76
2021/07/03 11:42:46;;;;;;;0.93;0.75;;;31.00;93.20;;;;;;5013986;28;20018;-76
2021/07/03 11:45:15;;;;;;;3.85;1.00;;;30.90;93.20;;;;;;5013723;28;20121;-76
2021/07/03 11:47:44;;;;;;;2.85;0.82;;;30.80;93.40;;;;;;5013578;28;20470;-76
2021/07/03 11:50:32;;;;;;;2.35;0.98;;;30.70;93.20;;;;;;5013860;28;20505;-76
2021/07/03 11:53:00;;;;;;;2.63;1.02;;;30.70;93.00;;;;;;5013876;28;20022;-75
2021/07/03 11:55:30;;;;;;;3.17;0.90;;;30.50;93.40;;;;;;5013949;28;20026;-76
2021/07/03 11:57:56;;;;;;;0.95;0.75;;;30.50;92.80;;;;;;5013749;28;20518;-75
2021/07/03 12:00:33;;;;;;;1.02;0.95;;;30.40;92.80;;;;;;5000445;28;20113;-76
2021/07/03 12:02:59;;;;;;;5.70;1.27;;;30.30;94.10;;;;;;5013919;28;20038;-76
2021/07/03 12:05:37;;;;;;;4.47;0.90;;;30.40;94.50;;;;;;5012350;28;20033;-77
2021/07/03 12:08:08;;;;;;;4.07;1.30;;;30.40;93.00;;;;;;5013310;28;20052;-76
2021/07/03 12:10:46;;;;;;;2.88;1.40;;;30.30;93.20;;;;;;5013658;28;20063;-76
2021/07/03 12:13:26;;;;;;;5.50;1.20;;;30.30;93.40;;;;;;5013610;28;20022;-77
2021/07/03 12:15:58;;;;;;;1.97;1.40;;;30.20;93.10;;;;;;5013351;28;20071;-77
2021/07/03 12:18:37;;;;;;;2.15;1.02;;;30.00;94.30;;;;;;5013309;28;20032;-76
2021/07/03 12:21:09;;;;;;;1.00;0.90;;;30.00;94.50;;;;;;5013446;28;20026;-77
2021/07/03 12:23:37;;;;;;;3.70;1.27;;;30.00;94.20;;;;;;5012736;28;20133;-76
2021/07/03 12:26:04;;;;;;;3.65;1.23;;;30.10;93.70;;;;;;5013047;28;20018;-76
2021/07/03 12:28:31;;;;;;;2.35;1.15;;;30.10;94.20;;;;;;4995898;28;20034;-77
2021/07/03 12:31:07;;;;;;;2.97;0.90;;;30.10;94.10;;;;;;4995802;28;20370;-76
2021/07/03 12:33:33;;;;;;;4.88;1.17;;;30.10;93.40;;;;;;5013316;28;20025;-76
2021/07/03 12:35:59;;;;;;;1.15;0.95;;;30.10;93.10;;;;;;5011738;28;20054;-76
2021/07/03 12:38:27;;;;;;;4.57;0.80;;;30.10;92.30;;;;;;4995309;28;20060;-76
2021/07/03 12:40:53;;;;;;;4.70;1.15;;;30.10;92.60;;;;;;5012914;28;20022;-76
2021/07/03 12:43:33;;;;;;;4.18;1.25;;;30.10;92.80;;;;;;5013198;28;20033;-76
2021/07/03 12:46:04;;;;;;;5.25;1.13;;;30.20;92.00;;;;;;5012914;28;20022;-76
2021/07/03 12:48:33;;;;;;;;;;;30.10;91.90;;;;;;5013156;28;20094;-76
2021/07/03 12:50:59;;;;;;;2.50;0.70;;;30.10;91.60;;;;;;5013020;28;19910;-76